sensor_id;sensor_type;location;lat;lon;timestamp;P1;durP1;ratioP1;P2;durP2;ratioP2
28078;SDS011;15388;42.238;24.684;2023-03-14T00:00:21;9.02;;;5.43;;
28078;SDS011;15388;42.238;24.684;2023-03-14T00:02:50;8.40;;;4.47;;
28078;SDS011;15388;42.238;24.684;2023-03-14T00:05:16;10.73;;;5.47;;
28078;SDS011;15388;42.238;24.684;2023-03-14T00:07:41;9.80;;;4.82;;
28078;SDS011;15388;42.238;24.684;2023-03-14T00:10:08;7.43;;;4.30;;
28078;SDS011;15388;42.238;24.684;2023-03-14T00:12:34;8.75;;;3.90;;
28078;SDS011;15388;42.238;24.684;2023-03-14T00:14:59;8.20;;;3.78;;
28078;SDS011;15388;42.238;24.684;2023-03-14T00:17:29;9.90;;;4.50;;
28078;SDS011;15388;42.238;24.684;2023-03-14T00:19:54;5.82;;;3.72;;
28078;SDS011;15388;42.238;24.684;2023-03-14T00:22:20;5.07;;;3.28;;
28078;SDS011;15388;42.238;24.684;2023-03-14T00:24:45;6.43;;;4.07;;
28078;SDS011;15388;42.238;24.684;2023-03-14T00:27:11;6.90;;;3.80;;
28078;SDS011;15388;42.238;24.684;2023-03-14T00:29:36;10.02;;;4.07;;
28078;SDS011;15388;42.238;24.684;2023-03-14T00:32:01;13.88;;;3.60;;
28078;SDS011;15388;42.238;24.684;2023-03-14T00:34:30;7.00;;;4.05;;
28078;SDS011;15388;42.238;24.684;2023-03-14T00:36:56;6.85;;;4.00;;
28078;SDS011;15388;42.238;24.684;2023-03-14T00:39:21;8.68;;;3.72;;
28078;SDS011;15388;42.238;24.684;2023-03-14T00:41:46;6.47;;;3.67;;
28078;SDS011;15388;42.238;24.684;2023-03-14T00:44:12;5.72;;;3.88;;
28078;SDS011;15388;42.238;24.684;2023-03-14T00:46:37;5.47;;;3.50;;
28078;SDS011;15388;42.238;24.684;2023-03-14T00:49:03;5.85;;;3.47;;
28078;SDS011;15388;42.238;24.684;2023-03-14T00:51:28;7.70;;;4.10;;
28078;SDS011;15388;42.238;24.684;2023-03-14T00:53:53;6.80;;;3.75;;
28078;SDS011;15388;42.238;24.684;2023-03-14T00:56:18;8.05;;;4.00;;
28078;SDS011;15388;42.238;24.684;2023-03-14T00:58:44;7.03;;;3.63;;
28078;SDS011;15388;42.238;24.684;2023-03-14T01:01:10;8.20;;;3.70;;
28078;SDS011;15388;42.238;24.684;2023-03-14T01:03:36;7.25;;;3.97;;
28078;SDS011;15388;42.238;24.684;2023-03-14T01:06:11;7.15;;;4.75;;
28078;SDS011;15388;42.238;24.684;2023-03-14T01:08:37;6.97;;;5.03;;
28078;SDS011;15388;42.238;24.684;2023-03-14T01:11:06;9.65;;;4.43;;
28078;SDS011;15388;42.238;24.684;2023-03-14T01:13:32;7.40;;;5.05;;
28078;SDS011;15388;42.238;24.684;2023-03-14T01:16:00;11.27;;;5.65;;
28078;SDS011;15388;42.238;24.684;2023-03-14T01:18:26;10.68;;;5.93;;
28078;SDS011;15388;42.238;24.684;2023-03-14T01:20:51;14.52;;;7.13;;
28078;SDS011;15388;42.238;24.684;2023-03-14T01:23:16;11.00;;;6.35;;
28078;SDS011;15388;42.238;24.684;2023-03-14T01:25:42;11.35;;;6.45;;
28078;SDS011;15388;42.238;24.684;2023-03-14T01:28:07;10.77;;;6.30;;
28078;SDS011;15388;42.238;24.684;2023-03-14T01:30:32;16.17;;;8.60;;
28078;SDS011;15388;42.238;24.684;2023-03-14T01:32:58;13.90;;;7.72;;
28078;SDS011;15388;42.238;24.684;2023-03-14T01:35:23;7.22;;;5.30;;
28078;SDS011;15388;42.238;24.684;2023-03-14T01:37:48;9.13;;;5.00;;
28078;SDS011;15388;42.238;24.684;2023-03-14T01:40:13;7.90;;;5.05;;
28078;SDS011;15388;42.238;24.684;2023-03-14T01:42:44;14.30;;;5.63;;
28078;SDS011;15388;42.238;24.684;2023-03-14T01:47:53;10.20;;;6.85;;
28078;SDS011;15388;42.238;24.684;2023-03-14T01:50:18;11.07;;;6.68;;
28078;SDS011;15388;42.238;24.684;2023-03-14T01:52:44;12.35;;;6.25;;
28078;SDS011;15388;42.238;24.684;2023-03-14T01:55:15;10.73;;;6.85;;
28078;SDS011;15388;42.238;24.684;2023-03-14T01:58:03;13.65;;;8.20;;
28078;SDS011;15388;42.238;24.684;2023-03-14T02:00:27;9.90;;;8.38;;
28078;SDS011;15388;42.238;24.684;2023-03-14T02:02:54;12.35;;;7.88;;
28078;SDS011;15388;42.238;24.684;2023-03-14T02:05:21;11.82;;;7.15;;
28078;SDS011;15388;42.238;24.684;2023-03-14T02:07:55;9.82;;;6.40;;
28078;SDS011;15388;42.238;24.684;2023-03-14T02:10:21;17.38;;;7.65;;
28078;SDS011;15388;42.238;24.684;2023-03-14T02:12:47;13.77;;;7.03;;
28078;SDS011;15388;42.238;24.684;2023-03-14T02:15:13;13.73;;;6.65;;
28078;SDS011;15388;42.238;24.684;2023-03-14T02:17:39;8.70;;;5.60;;
28078;SDS011;15388;42.238;24.684;2023-03-14T02:22:31;11.30;;;7.05;;
28078;SDS011;15388;42.238;24.684;2023-03-14T02:27:24;9.38;;;6.32;;
28078;SDS011;15388;42.238;24.684;2023-03-14T02:30:00;9.57;;;5.68;;
28078;SDS011;15388;42.238;24.684;2023-03-14T02:32:26;7.88;;;5.90;;
28078;SDS011;15388;42.238;24.684;2023-03-14T02:34:54;9.17;;;5.73;;
28078;SDS011;15388;42.238;24.684;2023-03-14T02:37:20;11.98;;;5.72;;
28078;SDS011;15388;42.238;24.684;2023-03-14T02:39:46;13.50;;;6.67;;
28078;SDS011;15388;42.238;24.684;2023-03-14T02:42:13;10.35;;;6.18;;
28078;SDS011;15388;42.238;24.684;2023-03-14T02:44:48;15.65;;;11.75;;
28078;SDS011;15388;42.238;24.684;2023-03-14T02:47:16;13.93;;;9.98;;
28078;SDS011;15388;42.238;24.684;2023-03-14T02:49:42;12.50;;;9.82;;
28078;SDS011;15388;42.238;24.684;2023-03-14T02:52:07;12.00;;;7.68;;
28078;SDS011;15388;42.238;24.684;2023-03-14T02:54:32;16.00;;;8.15;;
28078;SDS011;15388;42.238;24.684;2023-03-14T02:56:58;12.73;;;7.90;;
28078;SDS011;15388;42.238;24.684;2023-03-14T02:59:23;14.63;;;6.88;;
28078;SDS011;15388;42.238;24.684;2023-03-14T03:01:48;10.55;;;6.97;;
28078;SDS011;15388;42.238;24.684;2023-03-14T03:04:13;9.13;;;6.20;;
28078;SDS011;15388;42.238;24.684;2023-03-14T03:06:39;12.18;;;6.15;;
28078;SDS011;15388;42.238;24.684;2023-03-14T03:09:04;10.00;;;5.65;;
28078;SDS011;15388;42.238;24.684;2023-03-14T03:11:29;12.25;;;6.57;;
28078;SDS011;15388;42.238;24.684;2023-03-14T03:13:54;10.23;;;6.82;;
28078;SDS011;15388;42.238;24.684;2023-03-14T03:16:20;11.73;;;5.47;;
28078;SDS011;15388;42.238;24.684;2023-03-14T03:18:45;8.48;;;5.32;;
28078;SDS011;15388;42.238;24.684;2023-03-14T03:21:10;8.30;;;5.63;;
28078;SDS011;15388;42.238;24.684;2023-03-14T03:23:35;16.08;;;6.68;;
28078;SDS011;15388;42.238;24.684;2023-03-14T03:26:01;10.45;;;5.97;;
28078;SDS011;15388;42.238;24.684;2023-03-14T03:28:27;9.95;;;5.53;;
28078;SDS011;15388;42.238;24.684;2023-03-14T03:30:52;13.05;;;6.15;;
28078;SDS011;15388;42.238;24.684;2023-03-14T03:33:17;11.45;;;6.40;;
28078;SDS011;15388;42.238;24.684;2023-03-14T03:35:43;13.88;;;7.47;;
28078;SDS011;15388;42.238;24.684;2023-03-14T03:38:10;17.20;;;8.55;;
28078;SDS011;15388;42.238;24.684;2023-03-14T03:40:36;14.73;;;6.30;;
28078;SDS011;15388;42.238;24.684;2023-03-14T03:43:01;18.98;;;8.27;;
28078;SDS011;15388;42.238;24.684;2023-03-14T03:45:28;13.25;;;6.63;;
28078;SDS011;15388;42.238;24.684;2023-03-14T03:47:54;18.23;;;9.27;;
28078;SDS011;15388;42.238;24.684;2023-03-14T03:50:19;31.80;;;14.88;;
28078;SDS011;15388;42.238;24.684;2023-03-14T03:52:44;33.03;;;13.95;;
28078;SDS011;15388;42.238;24.684;2023-03-14T03:55:09;21.92;;;10.57;;
28078;SDS011;15388;42.238;24.684;2023-03-14T03:57:35;12.80;;;8.43;;
28078;SDS011;15388;42.238;24.684;2023-03-14T04:00:00;19.15;;;7.22;;
28078;SDS011;15388;42.238;24.684;2023-03-14T04:02:25;95.50;;;12.10;;
28078;SDS011;15388;42.238;24.684;2023-03-14T04:04:51;17.27;;;6.30;;
28078;SDS011;15388;42.238;24.684;2023-03-14T04:07:16;12.48;;;6.28;;
28078;SDS011;15388;42.238;24.684;2023-03-14T04:09:41;10.32;;;5.57;;
28078;SDS011;15388;42.238;24.684;2023-03-14T04:12:09;10.77;;;6.72;;
28078;SDS011;15388;42.238;24.684;2023-03-14T04:14:36;9.15;;;5.95;;
28078;SDS011;15388;42.238;24.684;2023-03-14T04:17:01;18.67;;;9.50;;
28078;SDS011;15388;42.238;24.684;2023-03-14T04:19:26;18.65;;;11.30;;
28078;SDS011;15388;42.238;24.684;2023-03-14T04:21:51;74.18;;;15.45;;
28078;SDS011;15388;42.238;24.684;2023-03-14T04:24:17;130.63;;;21.30;;
28078;SDS011;15388;42.238;24.684;2023-03-14T04:26:43;60.20;;;14.50;;
28078;SDS011;15388;42.238;24.684;2023-03-14T04:29:08;137.70;;;20.50;;
28078;SDS011;15388;42.238;24.684;2023-03-14T04:31:33;58.17;;;12.05;;
28078;SDS011;15388;42.238;24.684;2023-03-14T04:33:59;40.28;;;12.48;;
28078;SDS011;15388;42.238;24.684;2023-03-14T04:36:24;23.60;;;10.70;;
28078;SDS011;15388;42.238;24.684;2023-03-14T04:38:49;16.08;;;8.32;;
28078;SDS011;15388;42.238;24.684;2023-03-14T04:41:14;14.32;;;9.23;;
28078;SDS011;15388;42.238;24.684;2023-03-14T04:43:40;32.38;;;10.90;;
28078;SDS011;15388;42.238;24.684;2023-03-14T04:46:05;49.03;;;12.15;;
28078;SDS011;15388;42.238;24.684;2023-03-14T04:48:30;26.63;;;8.77;;
28078;SDS011;15388;42.238;24.684;2023-03-14T04:50:56;12.07;;;8.18;;
28078;SDS011;15388;42.238;24.684;2023-03-14T04:53:21;27.35;;;7.78;;
28078;SDS011;15388;42.238;24.684;2023-03-14T04:55:50;17.25;;;7.53;;
28078;SDS011;15388;42.238;24.684;2023-03-14T04:58:15;14.52;;;7.63;;
28078;SDS011;15388;42.238;24.684;2023-03-14T05:00:41;34.95;;;9.43;;
28078;SDS011;15388;42.238;24.684;2023-03-14T05:03:06;48.97;;;8.30;;
28078;SDS011;15388;42.238;24.684;2023-03-14T05:05:31;59.25;;;11.18;;
28078;SDS011;15388;42.238;24.684;2023-03-14T05:07:56;43.13;;;11.45;;
28078;SDS011;15388;42.238;24.684;2023-03-14T05:10:21;130.65;;;16.35;;
28078;SDS011;15388;42.238;24.684;2023-03-14T05:12:47;31.23;;;7.55;;
28078;SDS011;15388;42.238;24.684;2023-03-14T05:15:12;18.90;;;7.90;;
28078;SDS011;15388;42.238;24.684;2023-03-14T05:17:37;28.25;;;9.95;;
28078;SDS011;15388;42.238;24.684;2023-03-14T05:20:03;16.30;;;6.55;;
28078;SDS011;15388;42.238;24.684;2023-03-14T05:22:33;15.80;;;7.45;;
28078;SDS011;15388;42.238;24.684;2023-03-14T05:24:59;20.90;;;5.65;;
28078;SDS011;15388;42.238;24.684;2023-03-14T05:27:24;29.42;;;7.93;;
28078;SDS011;15388;42.238;24.684;2023-03-14T05:29:49;7.32;;;5.40;;
28078;SDS011;15388;42.238;24.684;2023-03-14T05:32:14;23.90;;;7.05;;
28078;SDS011;15388;42.238;24.684;2023-03-14T05:34:40;80.85;;;11.90;;
28078;SDS011;15388;42.238;24.684;2023-03-14T05:37:05;66.47;;;12.07;;
28078;SDS011;15388;42.238;24.684;2023-03-14T05:39:30;13.18;;;6.38;;
28078;SDS011;15388;42.238;24.684;2023-03-14T05:41:55;11.38;;;6.20;;
28078;SDS011;15388;42.238;24.684;2023-03-14T05:44:21;14.40;;;6.93;;
28078;SDS011;15388;42.238;24.684;2023-03-14T05:46:46;46.58;;;7.43;;
28078;SDS011;15388;42.238;24.684;2023-03-14T05:49:11;22.23;;;7.47;;
28078;SDS011;15388;42.238;24.684;2023-03-14T05:51:36;13.85;;;6.32;;
28078;SDS011;15388;42.238;24.684;2023-03-14T05:54:02;19.75;;;7.00;;
28078;SDS011;15388;42.238;24.684;2023-03-14T05:56:27;18.63;;;8.75;;
28078;SDS011;15388;42.238;24.684;2023-03-14T05:58:52;20.08;;;7.70;;
28078;SDS011;15388;42.238;24.684;2023-03-14T06:01:17;74.13;;;12.75;;
28078;SDS011;15388;42.238;24.684;2023-03-14T06:03:43;77.38;;;12.77;;
28078;SDS011;15388;42.238;24.684;2023-03-14T06:06:08;16.75;;;7.60;;
28078;SDS011;15388;42.238;24.684;2023-03-14T06:08:33;12.32;;;6.65;;
28078;SDS011;15388;42.238;24.684;2023-03-14T06:10:59;15.52;;;8.63;;
28078;SDS011;15388;42.238;24.684;2023-03-14T06:13:24;16.38;;;8.07;;
28078;SDS011;15388;42.238;24.684;2023-03-14T06:15:50;12.10;;;6.75;;
28078;SDS011;15388;42.238;24.684;2023-03-14T06:18:15;16.88;;;7.88;;
28078;SDS011;15388;42.238;24.684;2023-03-14T06:20:40;20.25;;;6.95;;
28078;SDS011;15388;42.238;24.684;2023-03-14T06:23:06;19.73;;;8.43;;
28078;SDS011;15388;42.238;24.684;2023-03-14T06:25:32;15.27;;;7.13;;
28078;SDS011;15388;42.238;24.684;2023-03-14T06:27:57;16.23;;;8.82;;
28078;SDS011;15388;42.238;24.684;2023-03-14T06:30:22;19.17;;;9.00;;
28078;SDS011;15388;42.238;24.684;2023-03-14T06:32:47;13.07;;;7.72;;
28078;SDS011;15388;42.238;24.684;2023-03-14T06:35:12;19.60;;;8.50;;
28078;SDS011;15388;42.238;24.684;2023-03-14T06:37:38;13.38;;;7.97;;
28078;SDS011;15388;42.238;24.684;2023-03-14T06:40:03;22.15;;;9.13;;
28078;SDS011;15388;42.238;24.684;2023-03-14T06:42:30;17.63;;;9.02;;
28078;SDS011;15388;42.238;24.684;2023-03-14T06:44:55;12.02;;;8.30;;
28078;SDS011;15388;42.238;24.684;2023-03-14T06:47:20;12.63;;;7.50;;
28078;SDS011;15388;42.238;24.684;2023-03-14T06:49:46;16.85;;;8.07;;
28078;SDS011;15388;42.238;24.684;2023-03-14T06:52:11;20.73;;;9.57;;
28078;SDS011;15388;42.238;24.684;2023-03-14T06:54:36;19.77;;;10.27;;
28078;SDS011;15388;42.238;24.684;2023-03-14T06:57:02;17.58;;;8.32;;
28078;SDS011;15388;42.238;24.684;2023-03-14T06:59:28;13.30;;;8.43;;
28078;SDS011;15388;42.238;24.684;2023-03-14T07:01:53;15.15;;;8.65;;
28078;SDS011;15388;42.238;24.684;2023-03-14T07:04:18;21.92;;;8.50;;
28078;SDS011;15388;42.238;24.684;2023-03-14T07:06:43;13.80;;;8.65;;
28078;SDS011;15388;42.238;24.684;2023-03-14T07:09:12;14.68;;;8.82;;
28078;SDS011;15388;42.238;24.684;2023-03-14T07:11:38;10.93;;;8.40;;
28078;SDS011;15388;42.238;24.684;2023-03-14T07:14:03;20.08;;;10.82;;
28078;SDS011;15388;42.238;24.684;2023-03-14T07:16:28;17.50;;;9.43;;
28078;SDS011;15388;42.238;24.684;2023-03-14T07:18:56;16.35;;;8.38;;
28078;SDS011;15388;42.238;24.684;2023-03-14T07:21:21;37.53;;;7.95;;
28078;SDS011;15388;42.238;24.684;2023-03-14T07:23:47;15.90;;;8.45;;
28078;SDS011;15388;42.238;24.684;2023-03-14T07:26:12;11.70;;;8.70;;
28078;SDS011;15388;42.238;24.684;2023-03-14T07:28:37;14.30;;;8.85;;
28078;SDS011;15388;42.238;24.684;2023-03-14T07:31:02;13.25;;;8.10;;
28078;SDS011;15388;42.238;24.684;2023-03-14T07:33:28;12.98;;;8.25;;
28078;SDS011;15388;42.238;24.684;2023-03-14T07:35:53;16.08;;;8.05;;
28078;SDS011;15388;42.238;24.684;2023-03-14T07:38:18;15.95;;;6.68;;
28078;SDS011;15388;42.238;24.684;2023-03-14T07:40:44;17.58;;;8.02;;
28078;SDS011;15388;42.238;24.684;2023-03-14T07:43:09;11.38;;;6.57;;
28078;SDS011;15388;42.238;24.684;2023-03-14T07:45:34;12.45;;;7.00;;
28078;SDS011;15388;42.238;24.684;2023-03-14T07:48:00;16.27;;;7.13;;
28078;SDS011;15388;42.238;24.684;2023-03-14T07:50:27;14.07;;;5.85;;
28078;SDS011;15388;42.238;24.684;2023-03-14T07:52:53;12.80;;;6.93;;
28078;SDS011;15388;42.238;24.684;2023-03-14T07:55:18;11.60;;;7.80;;
28078;SDS011;15388;42.238;24.684;2023-03-14T07:57:44;17.65;;;8.02;;
28078;SDS011;15388;42.238;24.684;2023-03-14T08:00:09;12.13;;;6.57;;
28078;SDS011;15388;42.238;24.684;2023-03-14T08:02:36;9.77;;;6.13;;
28078;SDS011;15388;42.238;24.684;2023-03-14T08:05:02;13.45;;;6.03;;
28078;SDS011;15388;42.238;24.684;2023-03-14T08:07:27;13.35;;;7.15;;
28078;SDS011;15388;42.238;24.684;2023-03-14T08:09:52;11.98;;;7.53;;
28078;SDS011;15388;42.238;24.684;2023-03-14T08:12:17;16.98;;;6.63;;
28078;SDS011;15388;42.238;24.684;2023-03-14T08:14:43;16.67;;;6.40;;
28078;SDS011;15388;42.238;24.684;2023-03-14T08:17:08;10.85;;;6.30;;
28078;SDS011;15388;42.238;24.684;2023-03-14T08:19:34;15.10;;;6.53;;
28078;SDS011;15388;42.238;24.684;2023-03-14T08:21:59;13.70;;;6.60;;
28078;SDS011;15388;42.238;24.684;2023-03-14T08:24:25;12.05;;;7.03;;
28078;SDS011;15388;42.238;24.684;2023-03-14T08:26:51;11.27;;;7.22;;
28078;SDS011;15388;42.238;24.684;2023-03-14T08:29:16;10.00;;;6.50;;
28078;SDS011;15388;42.238;24.684;2023-03-14T08:31:41;16.50;;;7.18;;
28078;SDS011;15388;42.238;24.684;2023-03-14T08:34:06;11.63;;;6.93;;
28078;SDS011;15388;42.238;24.684;2023-03-14T08:36:32;11.45;;;6.30;;
28078;SDS011;15388;42.238;24.684;2023-03-14T08:38:57;9.60;;;6.63;;
28078;SDS011;15388;42.238;24.684;2023-03-14T08:41:22;12.60;;;5.88;;
28078;SDS011;15388;42.238;24.684;2023-03-14T08:43:47;13.73;;;6.07;;
28078;SDS011;15388;42.238;24.684;2023-03-14T08:46:13;13.88;;;7.47;;
28078;SDS011;15388;42.238;24.684;2023-03-14T08:48:38;8.15;;;5.82;;
28078;SDS011;15388;42.238;24.684;2023-03-14T08:51:04;8.88;;;6.25;;
28078;SDS011;15388;42.238;24.684;2023-03-14T08:53:30;8.23;;;6.57;;
28078;SDS011;15388;42.238;24.684;2023-03-14T08:55:55;12.77;;;7.00;;
28078;SDS011;15388;42.238;24.684;2023-03-14T08:58:20;9.45;;;5.85;;
28078;SDS011;15388;42.238;24.684;2023-03-14T09:00:47;9.43;;;5.85;;
28078;SDS011;15388;42.238;24.684;2023-03-14T09:03:13;8.82;;;6.15;;
28078;SDS011;15388;42.238;24.684;2023-03-14T09:05:39;11.23;;;6.53;;
28078;SDS011;15388;42.238;24.684;2023-03-14T09:08:04;8.43;;;6.00;;
28078;SDS011;15388;42.238;24.684;2023-03-14T09:10:30;13.00;;;6.43;;
28078;SDS011;15388;42.238;24.684;2023-03-14T09:12:55;10.02;;;6.00;;
28078;SDS011;15388;42.238;24.684;2023-03-14T09:15:21;8.57;;;6.03;;
28078;SDS011;15388;42.238;24.684;2023-03-14T09:17:47;10.68;;;6.50;;
28078;SDS011;15388;42.238;24.684;2023-03-14T09:20:12;10.82;;;6.93;;
28078;SDS011;15388;42.238;24.684;2023-03-14T09:22:38;8.98;;;6.93;;
28078;SDS011;15388;42.238;24.684;2023-03-14T09:25:04;9.75;;;5.80;;
28078;SDS011;15388;42.238;24.684;2023-03-14T09:27:29;11.90;;;6.47;;
28078;SDS011;15388;42.238;24.684;2023-03-14T09:29:54;9.65;;;6.63;;
28078;SDS011;15388;42.238;24.684;2023-03-14T09:32:20;13.10;;;6.57;;
28078;SDS011;15388;42.238;24.684;2023-03-14T09:34:45;11.93;;;6.13;;
28078;SDS011;15388;42.238;24.684;2023-03-14T09:37:11;9.98;;;6.30;;
28078;SDS011;15388;42.238;24.684;2023-03-14T09:39:36;12.73;;;6.60;;
28078;SDS011;15388;42.238;24.684;2023-03-14T09:42:02;11.77;;;5.95;;
28078;SDS011;15388;42.238;24.684;2023-03-14T09:44:30;12.60;;;6.25;;
28078;SDS011;15388;42.238;24.684;2023-03-14T09:46:57;8.75;;;6.15;;
28078;SDS011;15388;42.238;24.684;2023-03-14T09:49:25;11.30;;;7.03;;
28078;SDS011;15388;42.238;24.684;2023-03-14T09:51:53;12.93;;;6.70;;
28078;SDS011;15388;42.238;24.684;2023-03-14T09:54:38;10.10;;;6.50;;
28078;SDS011;15388;42.238;24.684;2023-03-14T09:57:04;10.70;;;8.13;;
28078;SDS011;15388;42.238;24.684;2023-03-14T09:59:30;14.73;;;7.13;;
28078;SDS011;15388;42.238;24.684;2023-03-14T10:01:58;19.48;;;11.13;;
28078;SDS011;15388;42.238;24.684;2023-03-14T10:04:25;14.93;;;9.57;;
28078;SDS011;15388;42.238;24.684;2023-03-14T10:06:50;12.57;;;8.20;;
28078;SDS011;15388;42.238;24.684;2023-03-14T10:09:22;18.38;;;9.77;;
28078;SDS011;15388;42.238;24.684;2023-03-14T10:11:54;14.82;;;9.68;;
28078;SDS011;15388;42.238;24.684;2023-03-14T10:14:44;16.58;;;9.20;;
28078;SDS011;15388;42.238;24.684;2023-03-14T10:17:10;14.77;;;8.35;;
28078;SDS011;15388;42.238;24.684;2023-03-14T10:19:36;98.72;;;16.00;;
28078;SDS011;15388;42.238;24.684;2023-03-14T10:22:02;10.70;;;6.28;;
28078;SDS011;15388;42.238;24.684;2023-03-14T10:24:31;9.45;;;5.88;;
28078;SDS011;15388;42.238;24.684;2023-03-14T10:26:58;10.10;;;6.75;;
28078;SDS011;15388;42.238;24.684;2023-03-14T10:29:26;10.63;;;6.18;;
28078;SDS011;15388;42.238;24.684;2023-03-14T10:31:53;9.98;;;6.63;;
28078;SDS011;15388;42.238;24.684;2023-03-14T10:36:44;7.88;;;6.40;;
28078;SDS011;15388;42.238;24.684;2023-03-14T10:41:54;7.75;;;6.15;;
28078;SDS011;15388;42.238;24.684;2023-03-14T10:44:23;7.43;;;5.68;;
28078;SDS011;15388;42.238;24.684;2023-03-14T10:47:01;11.20;;;5.80;;
28078;SDS011;15388;42.238;24.684;2023-03-14T10:51:53;9.82;;;7.00;;
28078;SDS011;15388;42.238;24.684;2023-03-14T10:54:22;7.38;;;5.43;;
28078;SDS011;15388;42.238;24.684;2023-03-14T10:56:58;9.30;;;6.20;;
28078;SDS011;15388;42.238;24.684;2023-03-14T10:59:24;9.23;;;5.53;;
28078;SDS011;15388;42.238;24.684;2023-03-14T11:12:17;10.80;;;4.75;;
28078;SDS011;15388;42.238;24.684;2023-03-14T11:14:46;25.00;;;6.60;;
28078;SDS011;15388;42.238;24.684;2023-03-14T11:17:37;8.38;;;5.10;;
28078;SDS011;15388;42.238;24.684;2023-03-14T11:22:39;7.03;;;4.60;;
28078;SDS011;15388;42.238;24.684;2023-03-14T11:32:45;10.75;;;6.72;;
28078;SDS011;15388;42.238;24.684;2023-03-14T11:37:41;11.35;;;6.57;;
28078;SDS011;15388;42.238;24.684;2023-03-14T11:40:19;9.27;;;6.47;;
28078;SDS011;15388;42.238;24.684;2023-03-14T11:42:46;9.27;;;6.57;;
28078;SDS011;15388;42.238;24.684;2023-03-14T11:47:38;10.52;;;7.10;;
28078;SDS011;15388;42.238;24.684;2023-03-14T11:50:08;13.80;;;7.28;;
28078;SDS011;15388;42.238;24.684;2023-03-14T11:52:39;13.25;;;6.50;;
28078;SDS011;15388;42.238;24.684;2023-03-14T11:57:55;12.60;;;6.03;;
28078;SDS011;15388;42.238;24.684;2023-03-14T12:00:22;6.88;;;4.53;;
28078;SDS011;15388;42.238;24.684;2023-03-14T12:13:02;8.85;;;5.00;;
28078;SDS011;15388;42.238;24.684;2023-03-14T12:15:27;4.88;;;4.38;;
28078;SDS011;15388;42.238;24.684;2023-03-14T12:17:56;18.20;;;4.53;;
28078;SDS011;15388;42.238;24.684;2023-03-14T12:20:24;5.32;;;4.32;;
28078;SDS011;15388;42.238;24.684;2023-03-14T12:22:54;4.65;;;3.72;;
28078;SDS011;15388;42.238;24.684;2023-03-14T12:25:24;4.95;;;3.80;;
28078;SDS011;15388;42.238;24.684;2023-03-14T12:30:32;6.63;;;4.93;;
28078;SDS011;15388;42.238;24.684;2023-03-14T12:38:04;11.52;;;4.70;;
28078;SDS011;15388;42.238;24.684;2023-03-14T12:40:33;4.78;;;4.07;;
28078;SDS011;15388;42.238;24.684;2023-03-14T12:43:00;5.53;;;4.45;;
28078;SDS011;15388;42.238;24.684;2023-03-14T12:45:30;6.18;;;4.15;;
28078;SDS011;15388;42.238;24.684;2023-03-14T12:50:24;6.03;;;4.20;;
28078;SDS011;15388;42.238;24.684;2023-03-14T12:58:16;9.00;;;5.23;;
28078;SDS011;15388;42.238;24.684;2023-03-14T13:00:42;6.85;;;4.25;;
28078;SDS011;15388;42.238;24.684;2023-03-14T13:03:20;32.90;;;6.28;;
28078;SDS011;15388;42.238;24.684;2023-03-14T13:05:53;8.25;;;4.35;;
28078;SDS011;15388;42.238;24.684;2023-03-14T13:08:33;13.13;;;5.47;;
28078;SDS011;15388;42.238;24.684;2023-03-14T13:10:58;6.57;;;4.30;;
28078;SDS011;15388;42.238;24.684;2023-03-14T13:13:25;7.95;;;4.13;;
28078;SDS011;15388;42.238;24.684;2023-03-14T13:15:55;6.53;;;4.78;;
28078;SDS011;15388;42.238;24.684;2023-03-14T13:23:32;15.52;;;5.57;;
28078;SDS011;15388;42.238;24.684;2023-03-14T13:25:58;6.47;;;4.85;;
28078;SDS011;15388;42.238;24.684;2023-03-14T13:28:24;25.83;;;6.47;;
28078;SDS011;15388;42.238;24.684;2023-03-14T13:30:54;8.00;;;5.22;;
28078;SDS011;15388;42.238;24.684;2023-03-14T13:33:21;7.00;;;5.57;;
28078;SDS011;15388;42.238;24.684;2023-03-14T13:35:48;9.57;;;5.70;;
28078;SDS011;15388;42.238;24.684;2023-03-14T13:38:21;6.28;;;5.65;;
28078;SDS011;15388;42.238;24.684;2023-03-14T13:40:48;6.85;;;5.30;;
28078;SDS011;15388;42.238;24.684;2023-03-14T13:43:18;7.13;;;5.10;;
28078;SDS011;15388;42.238;24.684;2023-03-14T13:46:05;7.60;;;5.63;;
28078;SDS011;15388;42.238;24.684;2023-03-14T13:48:29;9.80;;;5.68;;
28078;SDS011;15388;42.238;24.684;2023-03-14T13:50:59;9.18;;;5.60;;
28078;SDS011;15388;42.238;24.684;2023-03-14T13:53:25;27.52;;;6.53;;
28078;SDS011;15388;42.238;24.684;2023-03-14T13:55:51;8.57;;;4.70;;
28078;SDS011;15388;42.238;24.684;2023-03-14T13:58:20;11.52;;;6.10;;
28078;SDS011;15388;42.238;24.684;2023-03-14T14:00:53;9.15;;;5.25;;
28078;SDS011;15388;42.238;24.684;2023-03-14T14:03:19;22.40;;;5.93;;
28078;SDS011;15388;42.238;24.684;2023-03-14T14:05:44;7.38;;;6.03;;
28078;SDS011;15388;42.238;24.684;2023-03-14T14:08:11;10.32;;;6.28;;
28078;SDS011;15388;42.238;24.684;2023-03-14T14:10:38;6.25;;;5.35;;
28078;SDS011;15388;42.238;24.684;2023-03-14T14:13:03;10.50;;;4.80;;
28078;SDS011;15388;42.238;24.684;2023-03-14T14:15:31;16.48;;;7.20;;
28078;SDS011;15388;42.238;24.684;2023-03-14T14:18:00;36.17;;;7.90;;
28078;SDS011;15388;42.238;24.684;2023-03-14T14:22:56;9.23;;;5.60;;
28078;SDS011;15388;42.238;24.684;2023-03-14T14:25:22;9.02;;;4.85;;
28078;SDS011;15388;42.238;24.684;2023-03-14T14:27:48;5.20;;;4.38;;
28078;SDS011;15388;42.238;24.684;2023-03-14T14:32:42;11.43;;;4.68;;
28078;SDS011;15388;42.238;24.684;2023-03-14T14:35:08;8.23;;;5.60;;
28078;SDS011;15388;42.238;24.684;2023-03-14T14:37:40;12.18;;;6.75;;
28078;SDS011;15388;42.238;24.684;2023-03-14T14:40:07;9.90;;;5.35;;
28078;SDS011;15388;42.238;24.684;2023-03-14T14:42:34;15.32;;;6.15;;
28078;SDS011;15388;42.238;24.684;2023-03-14T14:45:03;8.07;;;5.78;;
28078;SDS011;15388;42.238;24.684;2023-03-14T14:47:29;7.20;;;4.10;;
28078;SDS011;15388;42.238;24.684;2023-03-14T14:49:55;6.35;;;4.60;;
28078;SDS011;15388;42.238;24.684;2023-03-14T14:52:21;9.00;;;5.10;;
28078;SDS011;15388;42.238;24.684;2023-03-14T14:57:17;13.05;;;7.32;;
28078;SDS011;15388;42.238;24.684;2023-03-14T14:59:43;16.67;;;8.30;;
28078;SDS011;15388;42.238;24.684;2023-03-14T15:02:09;9.85;;;4.25;;
28078;SDS011;15388;42.238;24.684;2023-03-14T15:04:42;9.07;;;4.97;;
28078;SDS011;15388;42.238;24.684;2023-03-14T15:07:08;6.97;;;4.03;;
28078;SDS011;15388;42.238;24.684;2023-03-14T15:09:33;9.65;;;5.30;;
28078;SDS011;15388;42.238;24.684;2023-03-14T15:11:58;8.90;;;4.63;;
28078;SDS011;15388;42.238;24.684;2023-03-14T15:14:23;6.93;;;4.75;;
28078;SDS011;15388;42.238;24.684;2023-03-14T15:16:49;8.23;;;4.63;;
28078;SDS011;15388;42.238;24.684;2023-03-14T15:19:21;12.07;;;5.43;;
28078;SDS011;15388;42.238;24.684;2023-03-14T15:21:48;10.02;;;6.55;;
28078;SDS011;15388;42.238;24.684;2023-03-14T15:24:13;20.80;;;7.32;;
28078;SDS011;15388;42.238;24.684;2023-03-14T15:26:39;25.73;;;7.72;;
28078;SDS011;15388;42.238;24.684;2023-03-14T15:29:04;19.60;;;11.27;;
28078;SDS011;15388;42.238;24.684;2023-03-14T15:31:33;55.92;;;12.73;;
28078;SDS011;15388;42.238;24.684;2023-03-14T15:33:58;20.05;;;7.25;;
28078;SDS011;15388;42.238;24.684;2023-03-14T15:36:25;30.65;;;7.43;;
28078;SDS011;15388;42.238;24.684;2023-03-14T15:38:52;29.23;;;9.85;;
28078;SDS011;15388;42.238;24.684;2023-03-14T15:41:18;24.88;;;9.70;;
28078;SDS011;15388;42.238;24.684;2023-03-14T15:43:44;15.50;;;7.93;;